createdAt,value
2022-08-04T00:00:00.533Z,24.71
2022-08-04T00:02:39.447Z,24.72
2022-08-04T00:05:11.681Z,24.74
2022-08-04T00:07:45.046Z,24.76
2022-08-04T00:10:18.036Z,24.78
2022-08-04T00:12:52.892Z,24.80
2022-08-04T00:15:21.017Z,24.79
2022-08-04T00:17:54.993Z,24.79
2022-08-04T00:20:23.031Z,24.79
2022-08-04T00:22:53.520Z,24.79
2022-08-04T00:25:22.490Z,24.79
2022-08-04T00:27:50.272Z,24.79
2022-08-04T00:30:18.093Z,24.80
2022-08-04T00:32:46.249Z,24.78
2022-08-04T00:35:15.378Z,24.77
2022-08-04T00:37:45.396Z,24.76
2022-08-04T00:40:25.692Z,24.76
2022-08-04T00:43:11.193Z,24.75
2022-08-04T00:46:15.482Z,24.75
2022-08-04T00:48:54.072Z,24.76
2022-08-04T00:51:30.528Z,24.74
2022-08-04T00:54:07.212Z,24.72
2022-08-04T00:57:02.788Z,24.71
2022-08-04T00:59:45.718Z,24.66
2022-08-04T01:02:22.642Z,24.65
2022-08-04T01:04:58.535Z,24.65
2022-08-04T01:08:01.271Z,24.63
2022-08-04T01:10:41.714Z,24.60
2022-08-04T01:13:27.360Z,24.59
2022-08-04T01:16:05.229Z,24.58
2022-08-04T01:18:39.524Z,24.56
2022-08-04T01:21:22.833Z,24.57
2022-08-04T01:24:19.496Z,24.54
2022-08-04T01:26:58.175Z,24.51
2022-08-04T01:29:42.277Z,24.47
2022-08-04T01:32:25.431Z,24.43
2022-08-04T01:35:00.920Z,24.38
2022-08-04T01:37:46.243Z,24.33
2022-08-04T01:40:15.433Z,24.29
2022-08-04T01:42:45.469Z,24.25
2022-08-04T01:45:15.043Z,24.23
2022-08-04T01:47:49.600Z,24.21
2022-08-04T01:50:17.303Z,24.16
2022-08-04T01:52:50.729Z,24.11
2022-08-04T01:55:19.294Z,24.09
2022-08-04T01:57:49.130Z,24.02
2022-08-04T02:00:20.126Z,23.94
2022-08-04T02:02:48.460Z,23.92
2022-08-04T02:05:18.581Z,23.87
2022-08-04T02:07:57.395Z,23.83
2022-08-04T02:10:29.703Z,23.78
2022-08-04T02:13:08.710Z,23.75
2022-08-04T02:15:45.419Z,23.68
2022-08-04T02:18:20.927Z,23.66
2022-08-04T02:20:56.585Z,23.62
2022-08-04T02:23:31.142Z,23.56
2022-08-04T02:26:01.732Z,23.55
2022-08-04T02:28:35.647Z,23.52
2022-08-04T02:31:19.732Z,23.48
2022-08-04T02:33:53.787Z,23.44
2022-08-04T02:36:31.675Z,23.44
2022-08-04T02:39:01.782Z,23.43
2022-08-04T02:41:30.965Z,23.43
2022-08-04T02:44:00.561Z,23.42
2022-08-04T02:46:30.432Z,23.38
2022-08-04T02:48:58.673Z,23.39
2022-08-04T02:51:29.622Z,23.38
2022-08-04T02:54:00.184Z,23.39
2022-08-04T02:56:31.082Z,23.39
2022-08-04T02:59:02.295Z,23.38
2022-08-04T03:01:31.641Z,23.36
2022-08-04T03:04:24.262Z,23.35
2022-08-04T03:07:26.127Z,23.33
2022-08-04T03:10:31.326Z,23.29
2022-08-04T03:13:26.297Z,23.26
2022-08-04T03:16:04.240Z,23.21
2022-08-04T03:19:01.052Z,23.18
2022-08-04T03:22:10.151Z,23.14
2022-08-04T03:25:09.167Z,23.08
2022-08-04T03:28:15.235Z,23.00
2022-08-04T03:30:59.569Z,22.93
2022-08-04T03:33:51.794Z,22.86
2022-08-04T03:36:54.586Z,22.79
2022-08-04T03:39:32.629Z,22.75
2022-08-04T03:42:35.180Z,22.68
2022-08-04T03:45:35.390Z,22.65
2022-08-04T03:48:40.893Z,22.65
2022-08-04T03:51:44.003Z,22.61
2022-08-04T03:54:43.502Z,22.58
2022-08-04T03:57:33.277Z,22.54
2022-08-04T04:00:08.619Z,22.50
2022-08-04T04:03:26.725Z,22.50
2022-08-04T04:06:30.422Z,22.50
2022-08-04T04:09:20.435Z,22.50
2022-08-04T04:12:13.851Z,22.50
2022-08-04T04:14:57.430Z,22.49
2022-08-04T04:17:52.504Z,22.50
2022-08-04T04:20:40.517Z,22.50
2022-08-04T04:23:24.926Z,22.51
2022-08-04T04:26:07.388Z,22.54
2022-08-04T04:28:51.428Z,22.58
2022-08-04T04:31:34.498Z,22.60
2022-08-04T04:34:13.960Z,22.62
2022-08-04T04:36:51.175Z,22.65
2022-08-04T04:39:32.720Z,22.66
2022-08-04T04:42:15.974Z,22.69
2022-08-04T04:45:23.189Z,22.71
2022-08-04T04:48:08.181Z,22.70
2022-08-04T04:50:48.195Z,22.71
2022-08-04T04:53:25.080Z,22.74
2022-08-04T04:55:57.734Z,22.77
2022-08-04T04:58:26.532Z,22.78
2022-08-04T05:01:19.537Z,22.81
2022-08-04T05:04:23.665Z,22.83
2022-08-04T05:07:07.502Z,22.84
2022-08-04T05:09:53.238Z,22.84
2022-08-04T05:14:35.372Z,22.84
2022-08-04T05:15:45.017Z,22.82
2022-08-04T05:18:20.418Z,22.83
2022-08-04T05:20:52.981Z,22.84
2022-08-04T05:23:25.753Z,22.87
2022-08-04T05:25:59.773Z,22.91
2022-08-04T05:28:34.154Z,22.94
2022-08-04T05:31:06.433Z,22.96
2022-08-04T05:33:35.861Z,23.00
2022-08-04T05:36:20.766Z,22.99
2022-08-04T05:38:59.913Z,23.01
2022-08-04T05:41:32.290Z,23.02
2022-08-04T05:44:13.090Z,23.05
2022-08-04T05:46:41.587Z,23.09
2022-08-04T05:49:12.727Z,23.14
2022-08-04T05:51:50.577Z,23.19
2022-08-04T05:54:21.960Z,23.25
2022-08-04T05:56:50.842Z,23.30
2022-08-04T05:59:20.607Z,23.37
2022-08-04T06:01:56.530Z,23.42
2022-08-04T06:04:31.427Z,23.47
2022-08-04T06:06:59.158Z,23.53
2022-08-04T06:09:27.013Z,23.58
2022-08-04T06:12:03.948Z,23.62
2022-08-04T06:14:36.876Z,23.69
2022-08-04T06:18:32.108Z,23.74
2022-08-04T06:20:17.886Z,23.80
2022-08-04T06:22:47.258Z,23.87
2022-08-04T06:25:20.424Z,23.96
2022-08-04T06:27:50.317Z,24.02
2022-08-04T06:30:19.454Z,24.09
2022-08-04T06:32:55.479Z,24.17
2022-08-04T06:35:34.572Z,24.23
2022-08-04T06:38:03.756Z,24.31
2022-08-04T06:40:34.053Z,24.38
2022-08-04T06:43:03.781Z,24.46
2022-08-04T06:45:34.273Z,24.53
2022-08-04T06:48:03.633Z,24.62
2022-08-04T06:51:32.023Z,24.70
2022-08-04T06:53:20.950Z,24.78
2022-08-04T06:55:50.177Z,24.86
2022-08-04T06:58:19.652Z,24.95
2022-08-04T07:00:48.939Z,25.04
2022-08-04T07:03:18.999Z,25.12
2022-08-04T07:05:49.650Z,25.21
2022-08-04T07:08:17.776Z,25.29
2022-08-04T07:10:46.033Z,25.38
2022-08-04T07:13:14.051Z,25.47
2022-08-04T07:15:45.334Z,25.57
2022-08-04T07:18:13.178Z,25.65
2022-08-04T07:20:42.802Z,25.75
2022-08-04T07:23:13.754Z,25.84
2022-08-04T07:25:59.130Z,25.95
2022-08-04T07:28:31.303Z,26.05
2022-08-04T07:30:59.499Z,26.17
2022-08-04T07:33:27.369Z,26.25
2022-08-04T07:36:05.269Z,26.36
2022-08-04T07:38:48.693Z,26.47
2022-08-04T07:41:38.494Z,26.58
2022-08-04T07:44:07.765Z,26.71
2022-08-04T07:46:35.470Z,26.84
2022-08-04T07:49:04.121Z,26.95
2022-08-04T07:51:31.832Z,27.07
2022-08-04T07:54:03.305Z,27.18
2022-08-04T07:56:31.560Z,27.29
2022-08-04T07:59:00.478Z,27.42
2022-08-04T08:01:28.658Z,27.55
2022-08-04T08:03:58.268Z,27.69
2022-08-04T08:06:32.070Z,27.81
2022-08-04T08:09:13.308Z,27.96
2022-08-04T08:12:36.409Z,28.08
2022-08-04T08:14:30.253Z,28.23
2022-08-04T08:16:59.187Z,28.36
2022-08-04T08:19:26.791Z,28.47
2022-08-04T08:21:59.024Z,28.58
2022-08-04T08:24:29.529Z,28.69
2022-08-04T08:26:57.202Z,28.80
2022-08-04T08:29:25.680Z,28.89
2022-08-04T08:31:57.072Z,29.00
2022-08-04T08:34:28.128Z,29.11
2022-08-04T08:37:02.516Z,29.23
2022-08-04T08:39:37.057Z,29.35
2022-08-04T08:42:29.248Z,29.46
2022-08-04T08:45:17.928Z,29.56
2022-08-04T08:48:05.919Z,29.69
2022-08-04T08:51:12.405Z,29.80
2022-08-04T08:53:53.916Z,29.91
2022-08-04T08:56:33.446Z,30.03
2022-08-04T08:59:37.725Z,30.15
2022-08-04T09:02:29.638Z,30.26
2022-08-04T09:05:22.419Z,30.35
2022-08-04T09:08:09.009Z,30.44
2022-08-04T09:10:44.166Z,30.54
2022-08-04T09:13:21.200Z,30.66
2022-08-04T09:15:58.132Z,30.75
2022-08-04T09:18:29.341Z,30.86
2022-08-04T09:21:03.344Z,30.96
2022-08-04T09:23:42.175Z,31.07
2022-08-04T09:26:14.063Z,31.16
2022-08-04T09:28:54.480Z,31.26
2022-08-04T09:31:25.533Z,31.37
2022-08-04T09:34:02.666Z,31.43
2022-08-04T09:36:36.901Z,31.53
2022-08-04T09:39:11.118Z,31.65
2022-08-04T09:41:49.686Z,31.73
2022-08-04T09:44:50.771Z,31.83
2022-08-04T09:47:25.617Z,31.90
2022-08-04T09:50:19.619Z,32.02
2022-08-04T09:52:53.574Z,32.09
2022-08-04T09:55:53.872Z,32.18
2022-08-04T09:58:29.433Z,32.28
2022-08-04T10:01:02.989Z,32.35
2022-08-04T10:03:34.974Z,32.43
2022-08-04T10:06:13.419Z,32.50
2022-08-04T10:09:00.915Z,32.57
2022-08-04T10:11:55.591Z,32.65
2022-08-04T10:14:38.761Z,32.74
2022-08-04T10:17:22.013Z,32.81
2022-08-04T10:19:58.142Z,32.87
2022-08-04T10:22:40.788Z,32.92
2022-08-04T10:26:03.351Z,32.96
2022-08-04T10:28:24.230Z,33.00
2022-08-04T10:30:56.728Z,33.07
2022-08-04T10:33:29.950Z,33.14
2022-08-04T10:36:02.760Z,33.19
2022-08-04T10:38:32.374Z,33.24
2022-08-04T10:41:07.268Z,33.29
2022-08-04T10:43:45.332Z,33.34
2022-08-04T10:46:17.436Z,33.38
2022-08-04T10:48:52.473Z,33.41
2022-08-04T10:51:26.964Z,33.48
2022-08-04T10:54:06.932Z,33.52
2022-08-04T10:56:41.815Z,33.58
2022-08-04T10:59:14.149Z,33.62
2022-08-04T11:02:02.941Z,33.68
2022-08-04T11:04:45.212Z,33.72
2022-08-04T11:07:13.744Z,33.74
2022-08-04T11:09:43.866Z,33.76
2022-08-04T11:12:17.662Z,33.77
2022-08-04T11:14:51.119Z,33.82
2022-08-04T11:17:23.678Z,33.85
2022-08-04T11:20:31.782Z,33.90
2022-08-04T11:22:56.199Z,33.91
2022-08-04T11:25:27.449Z,33.92
2022-08-04T11:28:01.385Z,33.93
2022-08-04T11:30:35.994Z,33.96
2022-08-04T11:33:16.811Z,34.01
2022-08-04T11:35:53.808Z,34.05
2022-08-04T11:38:29.156Z,34.10
2022-08-04T11:41:05.009Z,34.14
2022-08-04T11:44:00.987Z,34.16
2022-08-04T11:46:36.935Z,34.19
2022-08-04T11:49:07.956Z,34.21
2022-08-04T11:51:37.413Z,34.21
2022-08-04T11:54:06.110Z,34.23
2022-08-04T11:56:37.290Z,34.24
2022-08-04T11:59:08.445Z,34.26
2022-08-04T12:01:48.606Z,34.30
2022-08-04T12:04:23.655Z,34.33
2022-08-04T12:07:21.889Z,34.37
2022-08-04T12:09:49.921Z,34.39
2022-08-04T12:12:27.282Z,34.43
2022-08-04T12:15:04.679Z,34.46
2022-08-04T12:17:53.448Z,34.53
2022-08-04T12:20:34.348Z,34.57
2022-08-04T12:23:16.619Z,34.64
2022-08-04T12:25:48.674Z,34.71
2022-08-04T12:28:23.477Z,34.74
2022-08-04T12:31:00.854Z,34.77
2022-08-04T12:34:02.897Z,34.81
2022-08-04T12:36:30.615Z,34.84
2022-08-04T12:39:10.424Z,34.87
2022-08-04T12:41:41.728Z,34.90
2022-08-04T12:44:36.999Z,34.90
2022-08-04T12:47:27.810Z,34.94
2022-08-04T12:49:56.186Z,34.95
2022-08-04T12:53:00.961Z,34.97
2022-08-04T12:55:22.156Z,35.01
2022-08-04T12:57:52.140Z,35.04
2022-08-04T13:00:31.231Z,35.04
2022-08-04T13:03:10.206Z,35.02
2022-08-04T13:05:39.933Z,35.01
2022-08-04T13:08:09.277Z,35.01
2022-08-04T13:10:41.708Z,35.02
2022-08-04T13:13:16.940Z,35.04
2022-08-04T13:15:46.769Z,35.05
2022-08-04T13:18:15.991Z,35.07
2022-08-04T13:20:45.003Z,35.09
2022-08-04T13:23:20.171Z,35.10
2022-08-04T13:28:44.174Z,35.08
2022-08-04T13:30:25.368Z,35.08
2022-08-04T13:31:16.887Z,35.07
2022-08-04T13:33:46.823Z,35.05
2022-08-04T13:36:15.752Z,35.04
2022-08-04T13:38:49.774Z,35.04
2022-08-04T13:41:19.733Z,35.01
2022-08-04T13:44:17.380Z,35.00
2022-08-04T14:26:59.662Z,34.95
2022-08-04T14:29:37.741Z,34.93
2022-08-04T14:32:12.708Z,34.88
2022-08-04T14:34:45.014Z,34.85
2022-08-04T14:37:18.268Z,34.84
2022-08-04T16:25:48.322Z,34.08
2022-08-04T16:28:41.725Z,34.04
2022-08-04T16:31:11.124Z,34.01
2022-08-04T16:33:43.735Z,33.98
2022-08-04T16:36:16.624Z,33.94
2022-08-04T16:39:02.111Z,33.92
2022-08-04T16:41:44.609Z,33.91
2022-08-04T16:44:52.073Z,33.89
2022-08-04T16:47:58.408Z,33.87
2022-08-04T16:50:25.911Z,33.84
2022-08-04T16:52:55.632Z,33.83
2022-08-04T16:55:24.353Z,33.83
2022-08-04T16:57:55.165Z,33.83
2022-08-04T17:00:31.174Z,33.81
2022-08-04T17:02:58.799Z,33.80
2022-08-04T17:05:39.804Z,33.78
2022-08-04T17:10:56.356Z,33.73
2022-08-04T17:14:03.190Z,33.72
2022-08-04T17:16:17.907Z,33.72
2022-08-04T17:18:47.870Z,33.69
2022-08-04T17:21:20.382Z,33.67
2022-08-04T17:24:14.102Z,33.65
2022-08-04T17:26:51.635Z,33.63
2022-08-04T17:29:43.922Z,33.61
2022-08-04T17:32:17.249Z,33.59
2022-08-04T17:34:48.693Z,33.59
2022-08-04T17:37:40.770Z,33.57
2022-08-04T17:40:10.389Z,33.55
2022-08-04T17:42:40.283Z,33.51
2022-08-04T17:48:00.428Z,33.47
2022-08-04T17:50:34.728Z,33.45
2022-08-04T17:53:12.074Z,33.43
2022-08-04T17:55:41.400Z,33.41
2022-08-04T17:58:21.925Z,33.40
2022-08-04T18:03:51.664Z,33.35
2022-08-04T18:06:35.005Z,33.34
2022-08-04T18:09:57.735Z,33.31
2022-08-04T18:11:56.311Z,33.25
2022-08-04T18:14:25.977Z,33.23
2022-08-04T18:16:57.885Z,33.20
2022-08-04T18:19:25.469Z,33.16
2022-08-04T18:21:59.550Z,33.13
2022-08-04T18:24:35.726Z,33.10
2022-08-04T18:27:18.661Z,33.08
2022-08-04T18:29:50.188Z,33.04
2022-08-04T18:32:35.664Z,33.00
2022-08-04T18:35:07.351Z,32.95
2022-08-04T18:38:06.888Z,32.90
2022-08-04T18:40:31.121Z,32.84
2022-08-04T18:43:06.610Z,32.79
2022-08-04T18:45:35.100Z,32.74
2022-08-04T18:48:14.458Z,32.68
2022-08-04T18:51:08.770Z,32.61
2022-08-04T18:53:34.747Z,32.54
2022-08-04T18:56:03.667Z,32.47
2022-08-04T18:58:33.810Z,32.40
2022-08-04T19:01:01.496Z,32.34
2022-08-04T19:03:33.146Z,32.28
2022-08-04T19:06:02.180Z,32.21
2022-08-04T19:08:34.193Z,32.15
2022-08-04T19:11:38.193Z,32.07
2022-08-04T19:13:54.836Z,31.97
2022-08-04T19:16:27.272Z,31.89
2022-08-04T19:18:57.446Z,31.81
2022-08-04T19:22:01.220Z,31.73
2022-08-04T19:24:32.094Z,31.65
2022-08-04T19:27:02.260Z,31.54
2022-08-04T19:29:37.563Z,31.44
2022-08-04T19:32:14.047Z,31.34
2022-08-04T19:34:46.234Z,31.26
2022-08-04T19:37:56.158Z,31.20
2022-08-04T19:40:02.501Z,31.09
2022-08-04T19:42:32.213Z,30.99
2022-08-04T19:44:59.699Z,30.91
2022-08-04T19:48:16.558Z,30.83
2022-08-04T19:50:16.388Z,30.74
2022-08-04T19:52:45.894Z,30.64
2022-08-04T19:55:22.274Z,30.53
2022-08-04T19:57:50.806Z,30.46
2022-08-04T20:00:33.110Z,30.37
2022-08-04T20:03:01.874Z,30.28
2022-08-04T20:05:52.675Z,30.21
2022-08-04T20:08:19.540Z,30.14
2022-08-04T20:10:51.564Z,30.08
2022-08-04T20:13:20.078Z,30.03
2022-08-04T20:15:50.471Z,29.96
2022-08-04T20:18:35.579Z,29.90
2022-08-04T20:21:19.645Z,29.84
2022-08-04T20:23:52.002Z,29.75
2022-08-04T20:26:19.516Z,29.68
2022-08-04T20:28:52.606Z,29.58
2022-08-04T20:31:23.563Z,29.52
2022-08-04T20:33:59.269Z,29.44
2022-08-04T20:36:28.177Z,29.36
2022-08-04T20:38:55.688Z,29.30
2022-08-04T20:41:23.460Z,29.22
2022-08-04T20:43:51.236Z,29.16
2022-08-04T20:46:29.042Z,29.11
2022-08-04T20:48:57.567Z,29.08
2022-08-04T20:51:32.055Z,29.03
2022-08-04T20:54:04.137Z,28.98
2022-08-04T20:56:50.690Z,28.94
2022-08-04T20:59:18.868Z,28.93
2022-08-04T21:01:48.984Z,28.90
2022-08-04T21:04:32.661Z,28.86
2022-08-04T21:07:01.484Z,28.79
2022-08-04T21:09:38.576Z,28.74
2022-08-04T21:12:28.225Z,28.70
2022-08-04T21:14:57.765Z,28.66
2022-08-04T21:17:59.043Z,28.61
2022-08-04T21:20:13.930Z,28.55
2022-08-04T21:22:41.636Z,28.52
2022-08-04T21:25:16.415Z,28.47
2022-08-04T21:27:44.457Z,28.43
2022-08-04T21:30:23.910Z,28.39
2022-08-04T21:32:53.007Z,28.34
2022-08-04T21:35:22.536Z,28.30
2022-08-04T21:38:16.192Z,28.27
2022-08-04T21:40:53.545Z,28.24
2022-08-04T21:43:23.561Z,28.22
2022-08-04T21:45:55.873Z,28.18
2022-08-04T21:48:27.696Z,28.12
2022-08-04T21:50:55.631Z,28.06
2022-08-04T21:53:24.864Z,28.02
2022-08-04T21:58:44.733Z,27.89
2022-08-04T22:01:49.845Z,27.86
2022-08-04T22:04:00.828Z,27.81
2022-08-04T22:06:29.279Z,27.77
2022-08-04T22:08:57.343Z,27.73
2022-08-04T22:11:48.625Z,27.70
2022-08-04T22:14:17.881Z,27.67
2022-08-04T22:16:57.349Z,27.65
2022-08-04T22:19:40.916Z,27.62
2022-08-04T22:22:24.423Z,27.61
2022-08-04T22:24:52.668Z,27.59
2022-08-04T22:27:35.477Z,27.59
2022-08-04T22:30:09.266Z,27.56
2022-08-04T22:32:44.619Z,27.52
2022-08-04T22:35:44.320Z,27.48
2022-08-04T22:38:06.301Z,27.44
2022-08-04T22:40:50.163Z,27.41
2022-08-04T22:43:32.052Z,27.37
2022-08-04T22:46:01.986Z,27.35
2022-08-04T22:48:31.889Z,27.30
2022-08-04T22:50:59.941Z,27.28
2022-08-04T22:53:27.512Z,27.24
2022-08-04T22:56:07.143Z,27.18
2022-08-04T22:58:40.776Z,27.15
2022-08-04T23:01:15.030Z,27.13
2022-08-04T23:03:50.970Z,27.11
2022-08-04T23:06:24.264Z,27.10
2022-08-04T23:08:52.572Z,27.09
2022-08-04T23:11:20.272Z,27.09
2022-08-04T23:13:49.621Z,27.07
2022-08-04T23:16:18.951Z,27.04
2022-08-04T23:18:49.117Z,27.02
2022-08-04T23:21:17.425Z,26.98
2022-08-04T23:24:00.693Z,26.96
2022-08-04T23:26:30.700Z,26.95
2022-08-04T23:28:59.678Z,26.92
2022-08-04T23:31:41.080Z,26.90
2022-08-04T23:34:19.277Z,26.87
2022-08-04T23:36:47.478Z,26.85
2022-08-04T23:39:15.338Z,26.82
2022-08-04T23:41:53.452Z,26.81
2022-08-04T23:44:27.080Z,26.81
2022-08-04T23:47:00.218Z,26.79
2022-08-04T23:49:44.326Z,26.77
2022-08-04T23:52:23.169Z,26.69
2022-08-04T23:54:58.229Z,26.61
2022-08-04T23:57:31.371Z,26.59
